Terminal Aerodrome Forecast
Issued by NWS Bismarck, ND

Home | Current Version | Previous Version | Text Only | Print | Product List | Glossary On
Versions: 1 2 3 4 5 6 7 8 9 10 11 12
000
FTUS43 KBIS 202300
TAFISN
TAF
KISN 202337Z 2100/2124 31016G26KT P6SM FEW250
     FM210200 31010KT P6SM SKC
     FM210500 30005KT P6SM SKC
     FM211900 23006KT P6SM SKC=

USA.gov is the U.S. government's official web portal to all federal, state and local government web resources and services.